Time;durP1;ratioP1;P1;durP2;ratioP2;P2;SDS_P1;SDS_P2;PMS_P1;PMS_P2;Temp;Humidity;BMP_temperature;BMP_pressure;BME280_temperature;BME280_humidity;BME280_pressure;Samples;Min_cycle;Max_cycle;Signal;HPM_P1;HPM_P2
2022/05/12 00:00:21;;;;;;;12.20;7.40;;;14.50;99.90;;;15.47;100.00;164610.19;5053426;28;20033;-83
2022/05/12 00:02:48;;;;;;;10.52;7.25;;;14.50;99.90;;;15.46;100.00;164607.50;5037882;28;20146;-85
2022/05/12 00:05:16;;;;;;;12.55;7.70;;;14.40;99.90;;;15.39;100.00;164588.75;5037973;28;20036;-85
2022/05/12 00:07:43;;;;;;;13.38;7.40;;;14.40;99.90;;;15.41;100.00;164592.78;5039223;28;20029;-85
2022/05/12 00:10:12;;;;;;;13.10;8.13;;;14.40;99.90;;;15.34;100.00;164574.00;5037556;28;20424;-85
2022/05/12 00:12:39;;;;;;;12.80;7.38;;;14.50;99.90;;;15.37;100.00;164583.41;5038280;28;20039;-86
2022/05/12 00:15:14;;;;;;;12.10;8.52;;;14.40;99.90;;;15.42;100.00;164596.75;5063730;28;20021;-81
2022/05/12 00:17:41;;;;;;;12.25;8.25;;;14.40;99.90;;;15.34;100.00;164575.34;5075436;28;20052;-84
2022/05/12 00:20:09;;;;;;;17.58;8.15;;;14.50;99.90;;;15.36;100.00;164580.69;5053294;28;20432;-85
2022/05/12 00:22:35;;;;;;;17.52;9.00;;;14.40;99.90;;;15.39;100.00;164587.38;5036319;28;20029;-82
2022/05/12 00:25:01;;;;;;;13.00;9.25;;;14.40;99.90;;;15.45;100.00;164603.47;5035855;28;20032;-82
2022/05/12 00:27:27;;;;;;;18.98;9.60;;;14.40;99.90;;;15.37;100.00;164582.03;5035930;28;20389;-86
2022/05/12 00:29:53;;;;;;;14.90;8.88;;;14.50;99.90;;;15.38;100.00;164586.03;5052575;28;20033;-85
2022/05/12 00:32:19;;;;;;;17.38;9.60;;;14.50;99.90;;;15.41;100.00;164594.06;5036224;28;20041;-85
2022/05/12 00:34:45;;;;;;;13.32;8.70;;;14.40;99.90;;;15.49;100.00;164614.25;5037812;28;20041;-84
2022/05/12 00:37:10;;;;;;;17.08;8.50;;;14.50;99.90;;;15.47;100.00;164608.84;5035673;28;20396;-84
2022/05/12 00:39:39;;;;;;;20.48;8.77;;;14.50;99.90;;;15.45;100.00;164603.47;5035764;28;20389;-82
2022/05/12 00:42:05;;;;;;;11.55;5.72;;;14.40;99.90;;;15.33;100.00;164572.66;5035720;28;20025;-83
2022/05/12 00:44:31;;;;;;;6.15;4.35;;;14.40;99.90;;;15.22;100.00;164544.50;5036723;28;20121;-82
2022/05/12 00:46:56;;;;;;;7.70;4.38;;;14.30;99.90;;;15.10;100.00;164512.38;5034983;28;20025;-84
2022/05/12 00:49:37;;;;;;;7.60;3.55;;;14.10;99.90;;;15.02;100.00;164490.97;5035325;28;20037;-83
2022/05/12 00:52:20;;;;;;;7.25;3.53;;;14.10;99.90;;;14.96;100.00;164473.56;5035058;28;20413;-81
2022/05/12 00:55:02;;;;;;;5.57;3.75;;;14.00;99.90;;;14.88;100.00;164452.09;5035932;28;20388;-85
2022/05/12 00:57:45;;;;;;;7.90;3.60;;;13.90;99.90;;;14.77;100.00;164425.31;5035588;28;20037;-83
2022/05/12 01:00:15;;;;;;;8.85;3.55;;;13.80;99.90;;;14.62;100.00;164383.81;5034090;28;20084;-86
2022/05/12 01:02:47;;;;;;;8.82;4.13;;;13.70;99.90;;;14.59;100.00;164375.78;5034804;28;20036;-83
2022/05/12 01:05:16;;;;;;;5.32;3.50;;;13.60;99.90;;;14.60;100.00;164379.81;5036627;28;20032;-88
2022/05/12 01:07:42;;;;;;;9.50;3.63;;;13.60;99.90;;;14.65;100.00;164391.84;5034254;28;20029;-84
2022/05/12 01:10:09;;;;;;;6.70;3.53;;;13.60;99.90;;;14.53;100.00;164359.72;5041031;28;20060;-86
2022/05/12 01:12:48;;;;;;;8.10;4.38;;;13.60;99.90;;;14.45;100.00;164338.31;5054331;28;20048;-84
2022/05/12 01:15:17;;;;;;;6.53;4.65;;;13.50;99.90;;;14.44;100.00;164336.97;5054474;28;20116;-84
2022/05/12 01:17:46;;;;;;;8.07;4.20;;;13.50;99.90;;;14.43;100.00;164332.91;5055454;28;20393;-85
2022/05/12 01:20:15;;;;;;;10.45;4.50;;;13.50;99.90;;;14.35;100.00;164312.88;5057004;28;20025;-83
2022/05/12 01:23:19;;;;;;;9.05;4.20;;;13.40;99.90;;;14.28;100.00;164294.06;5056229;28;20029;-86
2022/05/12 01:25:46;;;;;;;9.77;4.32;;;13.30;99.90;;;14.25;100.00;164287.34;5055155;28;20052;-85
2022/05/12 01:28:12;;;;;;;11.32;4.10;;;13.20;99.90;;;14.17;100.00;164264.59;5057722;28;20029;-84
2022/05/12 01:30:39;;;;;;;8.85;3.60;;;13.20;99.90;;;14.03;100.00;164228.44;5056636;28;20037;-86
2022/05/12 01:33:05;;;;;;;6.43;4.13;;;13.10;99.90;;;13.97;100.00;164211.03;5055020;28;20503;-87
2022/05/12 01:35:32;;;;;;;5.97;3.00;;;13.00;99.90;;;13.88;100.00;164188.28;5054291;28;20119;-85
2022/05/12 01:37:59;;;;;;;8.60;3.55;;;12.90;99.90;;;13.82;100.00;164170.91;5054071;28;20024;-83
2022/05/12 01:40:26;;;;;;;7.30;3.35;;;12.90;99.90;;;13.76;100.00;164156.19;5054009;28;20063;-84
2022/05/12 01:42:54;;;;;;;8.27;3.80;;;12.80;99.90;;;13.69;100.00;164138.78;5053493;28;20036;-82
2022/05/12 01:45:21;;;;;;;9.50;3.47;;;12.80;99.90;;;13.54;100.00;164098.66;5053391;28;20067;-83
2022/05/12 01:47:50;;;;;;;11.05;3.97;;;12.60;99.90;;;13.49;100.00;164083.91;5053176;28;20416;-85
2022/05/12 01:50:18;;;;;;;6.15;3.60;;;12.60;99.90;;;13.41;100.00;164063.88;5053708;28;20021;-86
2022/05/12 01:52:44;;;;;;;8.63;3.60;;;12.50;99.90;;;13.39;100.00;164058.47;5053261;28;20174;-87
2022/05/12 01:55:19;;;;;;;10.43;3.30;;;12.50;99.90;;;13.36;100.00;164049.09;5053299;28;20623;-83
2022/05/12 01:57:46;;;;;;;4.60;3.13;;;12.50;99.90;;;13.28;100.00;164029.06;5053068;28;20040;-84
2022/05/12 02:00:22;;;;;;;5.68;3.40;;;12.40;99.90;;;13.19;100.00;164006.34;5053025;28;20082;-84
2022/05/12 02:02:49;;;;;;;11.95;3.70;;;12.30;99.90;;;13.26;100.00;164022.41;5053238;28;20044;-83
2022/05/12 02:05:16;;;;;;;7.65;4.05;;;12.30;99.90;;;13.18;100.00;164002.31;5054422;28;20025;-86
2022/05/12 02:07:47;;;;;;;7.38;3.60;;;12.30;99.90;;;13.12;100.00;163987.59;5054176;28;20025;-89
2022/05/12 02:10:25;;;;;;;8.27;3.70;;;12.30;99.90;;;12.97;100.00;163946.09;5049172;28;20097;-83
2022/05/12 02:12:51;;;;;;;9.23;3.58;;;12.10;99.90;;;12.89;100.00;163926.00;5033991;28;20489;-86
2022/05/12 02:15:18;;;;;;;9.23;4.32;;;12.00;99.90;;;12.92;100.00;163934.03;5050674;28;20044;-82
2022/05/12 02:17:45;;;;;;;9.98;3.92;;;12.00;99.90;;;12.95;100.00;163942.06;5034018;28;20029;-86
2022/05/12 02:20:13;;;;;;;5.75;3.80;;;12.00;99.90;;;12.98;100.00;163950.06;5035423;28;20166;-84
2022/05/12 02:22:40;;;;;;;8.30;4.00;;;12.00;99.90;;;12.99;100.00;163952.75;5043684;28;20013;-81
2022/05/12 02:25:08;;;;;;;8.40;3.97;;;12.00;99.90;;;12.96;100.00;163943.41;5054282;28;20366;-84
2022/05/12 02:27:34;;;;;;;7.38;3.58;;;12.00;99.90;;;12.90;100.00;163927.34;5035083;28;20493;-84
2022/05/12 02:30:00;;;;;;;9.98;3.95;;;12.00;99.90;;;12.83;100.00;163909.97;5033195;28;20029;-85
2022/05/12 02:32:27;;;;;;;7.60;3.60;;;11.90;99.90;;;12.75;100.00;163888.53;5033305;28;20083;-86
2022/05/12 02:34:56;;;;;;;11.55;3.75;;;11.90;99.90;;;12.64;100.00;163860.50;5034246;28;20029;-82
2022/05/12 02:37:23;;;;;;;5.22;3.30;;;11.80;99.90;;;12.54;100.00;163832.38;5033384;28;20033;-85
2022/05/12 02:39:50;;;;;;;8.27;3.80;;;11.70;99.90;;;12.45;100.00;163808.31;5033178;28;20033;-86
2022/05/12 02:42:16;;;;;;;6.90;4.00;;;11.60;99.90;;;12.36;100.00;163785.56;5033163;28;20026;-83
2022/05/12 02:44:42;;;;;;;6.65;3.63;;;11.50;99.90;;;12.31;100.00;163770.88;5033633;28;20025;-86
2022/05/12 02:47:08;;;;;;;7.60;3.63;;;11.50;99.90;;;12.21;100.00;163745.47;5033581;28;20099;-83
2022/05/12 02:49:36;;;;;;;9.90;3.70;;;11.40;99.90;;;12.14;100.00;163726.72;5033790;28;20036;-84
2022/05/12 02:52:04;;;;;;;3.60;2.75;;;11.40;99.90;;;12.03;100.00;163697.34;5035034;28;20061;-85
2022/05/12 02:54:30;;;;;;;5.05;3.25;;;11.20;99.90;;;11.94;100.00;163674.66;5033039;28;20037;-86
2022/05/12 02:56:56;;;;;;;7.50;3.22;;;11.20;99.90;;;11.87;100.00;163655.91;5033136;28;20026;-83
2022/05/12 02:59:23;;;;;;;8.00;3.60;;;11.00;99.90;;;11.80;100.00;163637.19;5033333;28;20061;-84
2022/05/12 03:01:50;;;;;;;6.55;3.72;;;11.00;99.90;;;11.75;100.00;163622.50;5032911;28;20026;-87
2022/05/12 03:04:16;;;;;;;8.23;3.53;;;10.90;99.90;;;11.68;100.00;163605.06;5033048;28;20128;-85
2022/05/12 03:06:43;;;;;;;12.15;3.83;;;10.90;99.90;;;11.65;100.00;163597.06;5033551;28;20053;-83
2022/05/12 03:09:09;;;;;;;8.40;3.33;;;10.80;99.90;;;11.61;100.00;163586.34;5033363;28;20033;-85
2022/05/12 03:11:35;;;;;;;5.80;3.13;;;10.80;99.90;;;11.57;100.00;163577.00;5052375;28;20029;-85
2022/05/12 03:14:03;;;;;;;7.47;3.35;;;10.80;99.90;;;11.50;100.00;163556.94;5052944;28;20029;-83
2022/05/12 03:16:30;;;;;;;7.63;3.90;;;10.80;99.90;;;11.45;100.00;163544.94;5053339;28;20036;-85
2022/05/12 03:18:57;;;;;;;9.45;3.92;;;10.70;99.90;;;11.39;100.00;163527.56;5053403;28;20110;-85
2022/05/12 03:21:24;;;;;;;7.03;3.67;;;10.60;99.90;;;11.34;100.00;163515.50;5053696;28;20059;-85
2022/05/12 03:23:50;;;;;;;7.80;4.63;;;10.50;99.90;;;11.40;100.00;163531.53;5054501;28;20190;-87
2022/05/12 03:26:17;;;;;;;10.23;3.67;;;10.60;99.90;;;11.40;100.00;163530.19;5053890;28;20090;-87
2022/05/12 03:28:42;;;;;;;9.50;4.38;;;10.60;99.90;;;11.40;100.00;163531.53;5054637;28;20132;-85
2022/05/12 03:31:09;;;;;;;7.40;4.45;;;10.60;99.90;;;11.37;100.00;163522.19;5053844;28;20037;-87
2022/05/12 03:33:38;;;;;;;8.45;4.20;;;10.60;99.90;;;11.33;100.00;163511.53;5053295;28;20032;-83
2022/05/12 03:36:07;;;;;;;10.07;4.35;;;10.60;99.90;;;11.28;100.00;163499.50;5052993;28;20044;-85
2022/05/12 03:38:33;;;;;;;13.13;4.80;;;10.50;99.90;;;11.20;100.00;163478.13;5052855;28;20120;-85
2022/05/12 03:40:59;;;;;;;8.82;4.50;;;10.40;99.90;;;11.23;100.00;163486.16;5053417;28;20538;-85
2022/05/12 03:46:12;;;;;;;9.60;4.50;;;10.40;99.90;;;11.19;100.00;163475.44;5055188;28;20041;-84
2022/05/12 03:48:40;;;;;;;11.55;5.63;;;10.40;99.90;;;11.15;100.00;163464.75;5053000;28;20029;-84
2022/05/12 03:51:07;;;;;;;6.18;3.85;;;10.40;99.90;;;11.13;100.00;163458.06;5054966;28;20029;-85
2022/05/12 03:53:36;;;;;;;9.52;4.88;;;10.30;99.90;;;11.11;100.00;163454.03;5057983;28;20033;-83
2022/05/12 03:56:05;;;;;;;7.40;4.28;;;10.30;99.90;;;11.09;100.00;163450.06;5052234;28;20540;-83
2022/05/12 03:58:32;;;;;;;8.95;4.07;;;10.30;99.90;;;11.11;100.00;163454.03;5051661;28;20477;-87
2022/05/12 04:00:59;;;;;;;13.23;4.78;;;10.30;99.90;;;11.09;100.00;163448.72;5051449;28;20366;-84
2022/05/12 04:03:25;;;;;;;9.23;4.63;;;10.30;99.90;;;11.10;100.00;163451.41;5051613;28;20033;-85
2022/05/12 04:05:50;;;;;;;9.35;4.53;;;10.40;99.90;;;11.16;100.00;163467.44;5052614;28;20465;-85
2022/05/12 04:08:16;;;;;;;9.23;4.13;;;10.30;99.90;;;11.21;100.00;163479.44;5050758;28;20432;-84
2022/05/12 04:10:42;;;;;;;8.02;5.55;;;10.30;99.90;;;11.20;100.00;163476.78;5036321;28;20509;-84
2022/05/12 04:13:08;;;;;;;12.00;4.53;;;10.30;99.90;;;11.23;100.00;163486.16;5011628;28;20057;-85
2022/05/12 04:15:34;;;;;;;7.53;4.47;;;10.30;99.90;;;11.26;100.00;163492.81;5011803;28;20425;-84
2022/05/12 04:18:05;;;;;;;10.73;4.85;;;10.40;99.90;;;11.28;100.00;163498.13;5011677;28;20038;-86
2022/05/12 04:20:36;;;;;;;9.18;4.15;;;10.40;99.90;;;11.26;100.00;163494.16;5011746;28;20026;-86
2022/05/12 04:23:03;;;;;;;9.13;4.53;;;10.40;99.90;;;11.25;100.00;163491.47;5012044;28;20207;-87
2022/05/12 04:25:30;;;;;;;12.02;4.70;;;10.40;99.90;;;11.26;100.00;163492.81;5015847;28;20026;-85
2022/05/12 04:27:56;;;;;;;10.45;4.30;;;10.40;99.90;;;11.27;100.00;163496.81;5017370;28;20021;-88
2022/05/12 04:30:25;;;;;;;8.27;4.28;;;10.50;99.90;;;11.34;100.00;163515.50;5026077;28;20021;-79
2022/05/12 04:32:53;;;;;;;8.48;4.43;;;10.50;99.90;;;11.35;100.00;163518.22;5038330;28;20026;-83
2022/05/12 04:35:20;;;;;;;9.18;4.32;;;10.50;99.90;;;11.39;100.00;163527.56;5020391;28;20049;-87
2022/05/12 04:37:52;;;;;;;9.77;4.47;;;10.50;99.90;;;11.42;100.00;163535.59;5016783;28;20330;-85
2022/05/12 04:40:30;;;;;;;12.07;4.85;;;10.50;99.90;;;11.47;100.00;163550.25;5016454;28;20125;-85
2022/05/12 04:42:59;;;;;;;10.00;4.05;;;10.60;99.90;;;11.48;100.00;163552.94;5017045;28;20029;-82
2022/05/12 04:45:31;;;;;;;7.18;4.45;;;10.60;99.90;;;11.55;100.00;163570.31;5017995;28;20029;-84
2022/05/12 04:47:57;;;;;;;6.88;4.15;;;10.60;99.90;;;11.64;100.00;163594.38;5017529;28;20048;-84
2022/05/12 04:50:36;;;;;;;6.57;4.45;;;10.70;99.90;;;11.67;100.00;163601.03;5017967;28;20048;-86
2022/05/12 04:53:03;;;;;;;11.30;3.97;;;10.70;99.90;;;11.75;100.00;163623.81;5017480;28;20037;-85
2022/05/12 04:55:33;;;;;;;9.18;4.50;;;10.90;99.90;;;11.85;100.00;163650.53;5017081;28;20433;-87
2022/05/12 04:58:00;;;;;;;11.30;4.90;;;10.90;99.90;;;11.99;100.00;163686.66;5017925;28;20093;-88
2022/05/12 05:00:37;;;;;;;12.23;5.32;;;11.10;99.90;;;12.08;100.00;163710.69;5024533;28;20029;-87
2022/05/12 05:03:05;;;;;;;11.82;5.00;;;11.10;99.90;;;12.24;100.00;163753.47;5027735;28;20036;-83
2022/05/12 05:05:31;;;;;;;9.82;5.05;;;11.30;99.90;;;12.42;100.00;163800.31;5024129;28;20148;-86
2022/05/12 05:07:57;;;;;;;7.25;4.30;;;11.40;99.90;;;12.63;100.00;163857.78;5017337;28;20029;-85
2022/05/12 05:10:24;;;;;;;11.63;4.80;;;11.60;99.90;;;12.80;100.00;163900.59;5035187;28;20507;-86
2022/05/12 05:12:52;;;;;;;9.52;3.78;;;11.60;99.90;;;12.85;100.00;163913.94;5055793;28;20033;-84
2022/05/12 05:15:18;;;;;;;11.38;4.05;;;11.70;99.90;;;12.78;100.00;163895.25;5055978;28;20021;-84
2022/05/12 05:17:45;;;;;;;9.95;4.32;;;11.70;99.90;;;12.77;100.00;163892.56;5055363;28;20110;-84
2022/05/12 05:20:20;;;;;;;7.45;3.83;;;11.70;99.90;;;12.77;100.00;163892.56;5055562;28;20029;-86
2022/05/12 05:22:47;;;;;;;11.07;4.70;;;11.70;99.90;;;12.90;100.00;163928.69;5057969;28;20070;-84
2022/05/12 05:25:16;;;;;;;12.95;4.15;;;11.90;99.90;;;13.06;100.00;163971.50;5056734;28;20132;-83
2022/05/12 05:27:45;;;;;;;8.60;3.78;;;11.90;99.90;;;13.12;100.00;163986.25;5056587;28;20025;-85
2022/05/12 05:30:18;;;;;;;9.85;4.00;;;12.10;99.90;;;13.23;100.00;164015.66;5055771;28;20032;-87
2022/05/12 05:32:45;;;;;;;11.43;4.40;;;12.10;99.90;;;13.49;100.00;164085.25;5056735;28;20033;-84
2022/05/12 05:35:14;;;;;;;11.77;4.03;;;12.30;99.90;;;13.88;100.00;164188.28;5056495;28;20104;-85
2022/05/12 05:37:44;;;;;;;14.10;5.20;;;12.60;99.90;;;14.34;100.00;164310.19;5055876;28;20033;-82
2022/05/12 05:40:14;;;;;;;9.30;4.20;;;13.00;99.90;;;14.60;100.00;164378.47;5055839;28;20037;-86
2022/05/12 05:42:48;;;;;;;10.68;4.30;;;13.30;99.90;;;14.68;100.00;164399.88;5056114;28;20146;-85
2022/05/12 05:45:17;;;;;;;8.85;4.47;;;13.50;99.90;;;14.72;100.00;164410.59;5055965;28;20025;-87
2022/05/12 05:47:52;;;;;;;11.63;4.35;;;13.60;99.90;;;15.01;100.00;164486.94;5055632;28;20048;-87
2022/05/12 05:53:31;;;;;;;8.90;4.47;;;14.00;99.90;;;15.42;100.00;164595.41;5059217;28;20094;-87
2022/05/12 05:56:01;;;;;;;9.23;4.85;;;14.20;99.90;;;15.52;100.00;164623.63;5055922;28;20044;-85
2022/05/12 05:58:29;;;;;;;11.60;4.57;;;14.40;99.90;;;15.63;100.00;164653.13;5072221;28;20032;-86
2022/05/12 06:00:56;;;;;;;12.80;4.18;;;14.50;99.90;;;15.75;99.28;164685.28;5056200;28;20028;-86
2022/05/12 06:03:23;;;;;;;9.85;4.68;;;14.70;99.90;;;16.19;96.10;164800.50;5057891;28;20051;-84
2022/05/12 06:05:50;;;;;;;11.05;4.90;;;14.90;99.90;;;16.53;92.46;164890.34;5055564;28;20034;-86
2022/05/12 06:08:20;;;;;;;10.20;5.07;;;15.20;99.90;;;16.57;91.78;164901.09;5055689;28;20029;-86
2022/05/12 06:10:47;;;;;;;11.55;4.43;;;15.30;99.90;;;16.23;91.44;164811.25;5055314;28;20039;-85
2022/05/12 06:13:17;;;;;;;13.13;4.75;;;15.00;99.90;;;15.89;90.93;164720.13;5055199;28;20083;-85
2022/05/12 06:15:43;;;;;;;13.02;4.72;;;15.00;99.90;;;16.20;90.31;164803.19;5055261;28;20057;-83
2022/05/12 06:18:17;;;;;;;9.18;4.00;;;15.00;99.90;;;16.21;90.48;164807.19;5054274;28;20140;-88
2022/05/12 06:20:49;;;;;;;11.77;4.80;;;15.10;99.90;;;16.26;89.19;164819.28;5055940;28;20352;-88
2022/05/12 06:23:18;;;;;;;8.07;4.05;;;15.10;99.90;;;16.46;88.62;164871.56;5054597;28;20029;-85
2022/05/12 06:25:44;;;;;;;10.50;4.45;;;15.20;99.90;;;16.77;87.26;164956.06;5054729;28;20173;-85
2022/05/12 06:28:11;;;;;;;10.90;4.00;;;15.40;99.90;;;16.72;85.87;164941.34;5056065;28;20415;-87
2022/05/12 06:30:38;;;;;;;11.50;4.72;;;15.60;99.90;;;16.64;84.84;164919.88;5055362;28;20025;-86
2022/05/12 06:33:06;;;;;;;12.52;5.35;;;15.50;99.90;;;16.90;86.50;164989.59;5056839;28;20032;-85
2022/05/12 06:35:32;;;;;;;11.88;5.10;;;15.70;99.90;;;17.14;83.50;165054.00;5057703;28;20167;-84
2022/05/12 06:37:58;;;;;;;12.85;4.97;;;15.90;99.90;;;17.45;81.05;165134.44;5071701;28;20024;-82
2022/05/12 06:40:24;;;;;;;9.60;4.40;;;16.20;99.90;;;17.43;81.34;165129.09;5069703;28;20064;-86
2022/05/12 06:42:51;;;;;;;10.15;4.90;;;16.20;99.90;;;17.61;81.57;165178.78;5056436;28;20040;-84
2022/05/12 06:45:21;;;;;;;12.48;5.20;;;16.40;99.90;;;17.73;80.36;165209.63;5056245;28;20106;-84
2022/05/12 06:47:52;;;;;;;9.07;4.40;;;16.60;99.90;;;17.87;80.27;165248.56;5055191;28;20396;-86
2022/05/12 06:50:30;;;;;;;9.00;3.95;;;16.60;99.90;;;18.03;78.13;165288.78;5054833;28;20025;-86
2022/05/12 06:52:59;;;;;;;10.45;4.60;;;16.80;99.90;;;18.12;77.98;165314.28;5055431;28;20112;-84
2022/05/12 06:55:31;;;;;;;8.70;4.20;;;17.00;99.90;;;18.34;77.57;165371.97;5056026;28;20074;-83
2022/05/12 06:58:00;;;;;;;13.23;4.22;;;17.10;99.90;;;18.83;75.83;165503.59;5055047;28;20025;-83
2022/05/12 07:00:27;;;;;;;8.50;4.07;;;17.30;99.90;;;19.24;73.41;165612.34;5056018;28;20036;-86
2022/05/12 07:02:53;;;;;;;6.93;3.72;;;17.70;99.90;;;19.59;73.60;165703.72;5074738;28;20036;-89
2022/05/12 07:05:34;;;;;;;8.40;4.53;;;18.00;99.90;;;19.90;71.01;165787.03;5075254;28;20123;-83
2022/05/12 07:08:04;;;;;;;7.88;3.90;;;18.30;99.90;;;20.12;70.44;165846.13;5054990;28;20029;-87
2022/05/12 07:10:29;;;;;;;8.02;4.45;;;18.60;99.90;;;20.21;67.05;165870.31;5055271;28;20063;-86
2022/05/12 07:12:57;;;;;;;9.00;4.40;;;18.80;99.90;;;20.23;68.53;165875.66;5054825;28;20119;-86
2022/05/12 07:15:27;;;;;;;9.32;4.50;;;19.00;99.90;;;20.99;66.81;166078.69;5055174;28;20494;-86
2022/05/12 07:17:57;;;;;;;6.03;3.97;;;19.50;99.90;;;21.37;65.31;166179.53;5056261;28;20029;-84
2022/05/12 07:28:46;;;;;;;8.25;4.32;;;18.70;99.90;;;19.56;69.21;165697.00;5058151;28;20048;-85
2022/05/12 07:31:12;;;;;;;9.10;3.78;;;18.30;99.90;;;19.23;68.57;165609.66;5057708;28;20033;-84
2022/05/12 07:33:46;;;;;;;7.00;3.25;;;17.90;99.90;;;19.46;68.35;165670.13;5056817;28;20044;-84
2022/05/12 07:36:21;;;;;;;4.97;3.22;;;18.10;99.90;;;19.24;68.11;165612.34;5055284;28;20029;-85
2022/05/12 07:38:48;;;;;;;7.25;3.13;;;17.70;99.90;;;18.60;70.06;165440.50;5054339;28;20100;-86
2022/05/12 07:41:19;;;;;;;9.95;3.95;;;17.30;99.90;;;17.74;71.58;165212.31;5054100;28;20029;-84
2022/05/12 07:43:47;;;;;;;6.93;4.28;;;16.80;99.90;;;17.84;72.50;165239.16;5055440;28;20063;-86
2022/05/12 07:46:18;;;;;;;9.57;3.40;;;16.70;99.90;;;18.66;72.45;165456.59;5056862;28;20067;-83
2022/05/12 07:48:47;;;;;;;7.30;3.80;;;17.20;99.90;;;19.35;67.88;165640.56;5055980;28;20040;-85
2022/05/12 07:51:13;;;;;;;8.40;3.33;;;17.90;99.90;;;19.75;66.32;165746.69;5056066;28;20029;-85
2022/05/12 07:53:41;;;;;;;4.15;2.35;;;18.20;99.90;;;20.28;64.11;165887.81;5055882;28;20025;-84
2022/05/12 07:56:10;;;;;;;7.05;3.10;;;18.60;99.90;;;20.68;62.32;165994.00;5056057;28;20041;-86
2022/05/12 07:58:36;;;;;;;7.22;2.80;;;19.00;99.90;;;21.63;59.70;166246.78;5056501;28;20037;-85
2022/05/12 08:01:02;;;;;;;7.65;2.58;;;19.70;99.90;;;21.61;58.25;166242.72;5060724;28;20025;-84
2022/05/12 08:03:36;;;;;;;4.22;2.78;;;19.80;99.90;;;21.46;60.05;166202.38;5060543;28;20025;-86
2022/05/12 08:06:04;;;;;;;6.82;2.90;;;19.90;99.90;;;21.37;59.34;166178.19;5059814;28;20033;-86
2022/05/12 08:08:38;;;;;;;8.27;3.00;;;19.80;99.90;;;21.37;59.41;166178.19;5060753;28;20025;-85
2022/05/12 08:11:12;;;;;;;7.82;3.15;;;19.90;99.90;;;22.06;57.53;166363.81;5046431;28;20033;-84
2022/05/12 08:13:47;;;;;;;4.82;2.47;;;20.20;99.90;;;22.44;57.19;166463.38;5040809;28;20033;-84
2022/05/12 08:16:21;;;;;;;6.63;2.85;;;20.50;99.90;;;21.79;55.96;166289.81;5041059;28;20025;-82
2022/05/12 08:18:52;;;;;;;5.38;2.28;;;20.20;99.90;;;21.91;57.70;166322.13;5042482;28;20025;-85
2022/05/12 08:21:25;;;;;;;5.25;2.70;;;20.30;99.90;;;21.66;54.93;166256.19;5041461;28;20045;-84
2022/05/12 08:23:55;;;;;;;10.43;2.75;;;20.30;96.40;;;22.12;55.51;166377.28;5041142;28;20112;-85
2022/05/12 08:26:22;;;;;;;5.40;2.75;;;20.30;99.90;;;22.12;53.38;166377.28;5040766;28;20028;-85
2022/05/12 08:28:50;;;;;;;8.27;2.95;;;20.40;95.40;;;22.03;53.95;166354.38;5039191;28;20033;-83
2022/05/12 08:31:30;;;;;;;5.72;2.55;;;20.40;95.60;;;22.16;53.20;166388.00;5056857;28;20072;-84
2022/05/12 08:33:59;;;;;;;4.05;1.83;;;20.50;93.80;;;22.46;52.66;166468.75;5038300;28;20389;-83
2022/05/12 08:36:28;;;;;;;8.32;1.98;;;20.70;93.30;;;22.64;50.02;166517.16;5038625;28;20107;-87
2022/05/12 08:39:04;;;;;;;4.07;1.75;;;21.00;89.10;;;23.05;49.33;166627.53;5038277;28;20116;-84
2022/05/12 08:41:59;;;;;;;7.15;2.55;;;21.30;86.90;;;23.77;48.74;166817.38;5037188;28;20064;-82
2022/05/12 08:44:31;;;;;;;6.30;2.30;;;21.80;86.70;;;23.33;47.58;166700.25;5042905;28;20033;-84
2022/05/12 08:47:09;;;;;;;4.32;2.38;;;21.70;80.00;;;23.07;48.08;166631.59;5058707;28;20077;-82
2022/05/12 08:49:51;;;;;;;5.70;2.10;;;21.50;80.00;;;23.04;49.28;166624.88;5039059;28;20064;-83
2022/05/12 08:52:59;;;;;;;;;;;;;;;;;;;;;
2022/05/12 08:55:50;;;;;;;7.22;2.40;;;21.00;80.90;;;22.21;51.55;166401.50;5038926;28;20120;-85
2022/05/12 08:58:37;;;;;;;5.45;2.38;;;20.70;88.00;;;22.40;49.57;166453.94;5039084;28;20612;-84
2022/05/12 09:01:24;;;;;;;6.22;2.28;;;20.90;85.70;;;22.88;48.36;166581.81;5038098;28;20056;-84
2022/05/12 09:04:54;;;;;;;6.88;1.88;;;21.20;82.30;;;22.85;48.53;166573.75;5038740;28;20029;-85
2022/05/12 09:08:01;;;;;;;3.97;2.13;;;21.40;80.10;;;22.45;49.24;166467.38;5027840;28;20045;-85
2022/05/12 09:10:56;;;;;;;5.82;1.95;;;20.80;81.20;;;22.05;51.69;166361.16;5045649;28;20086;-84
2022/05/12 09:13:39;;;;;;;5.50;2.40;;;20.60;86.10;;;22.31;48.74;166429.75;5058099;28;20477;-84
2022/05/12 09:16:31;;;;;;;5.07;2.35;;;20.90;81.30;;;23.19;47.33;166663.88;5055871;28;20044;-85
2022/05/12 09:18:59;;;;;;;5.63;2.13;;;21.50;79.30;;;23.77;46.25;166817.38;5056276;28;20053;-82
2022/05/12 09:21:36;;;;;;;6.13;2.70;;;21.80;76.50;;;22.65;48.32;166518.50;5058150;28;20036;-85
2022/05/12 09:24:07;;;;;;;7.38;2.40;;;21.60;75.30;;;23.42;47.01;166725.88;5058998;28;20029;-83
2022/05/12 09:26:48;;;;;;;5.72;2.80;;;21.80;76.10;;;23.43;45.49;166728.56;5058564;28;20480;-85
2022/05/12 09:29:29;;;;;;;6.50;2.60;;;22.00;71.80;;;22.79;45.60;166557.59;5060023;28;20037;-87
2022/05/12 09:32:28;;;;;;;5.78;2.15;;;21.60;71.40;;;22.82;45.66;166564.31;5065342;28;20037;-84
2022/05/12 09:35:06;;;;;;;6.65;2.58;;;21.70;71.60;;;22.59;45.75;166503.72;5058409;28;20033;-83
2022/05/12 09:37:32;;;;;;;4.35;1.75;;;21.30;71.30;;;21.88;48.57;166314.00;5056234;28;20123;-84
2022/05/12 09:40:46;;;;;;;5.15;2.38;;;20.60;75.80;;;21.23;51.66;166141.88;5055254;28;20033;-83
2022/05/12 09:43:32;;;;;;;6.72;2.88;;;20.00;80.70;;;21.62;49.43;166244.06;5056329;28;20028;-84
2022/05/12 09:46:31;;;;;;;3.35;2.10;;;20.20;80.10;;;21.92;49.52;166324.81;5072056;28;20021;-83
2022/05/12 09:49:38;;;;;;;6.25;2.25;;;20.30;80.30;;;22.82;46.87;166564.31;5056339;28;20025;-84
2022/05/12 09:52:39;;;;;;;3.55;2.25;;;21.00;76.80;;;23.38;45.08;166713.69;5051036;28;20051;-85
2022/05/12 09:55:27;;;;;;;3.50;2.00;;;21.60;73.30;;;22.70;43.70;166533.34;5057438;28;20033;-83
2022/05/12 09:57:59;;;;;;;5.50;1.85;;;21.40;68.90;;;22.90;42.83;166587.19;5058057;28;20031;-85
2022/05/12 10:00:49;;;;;;;3.65;2.00;;;21.50;67.60;;;23.44;42.26;166729.88;5056799;28;20457;-84
2022/05/12 10:09:20;;;;;;;4.30;1.83;;;22.30;69.40;;;24.02;41.49;166884.69;5055301;28;20044;-83
2022/05/12 10:12:22;;;;;;;4.57;2.33;;;22.40;66.00;;;23.93;40.29;166861.81;5054109;28;20098;-83
2022/05/12 10:15:00;;;;;;;3.88;2.20;;;22.40;63.10;;;24.71;39.39;167069.28;5054077;28;20218;-82
2022/05/12 10:17:53;;;;;;;3.72;2.10;;;22.90;63.10;;;24.87;37.03;167112.44;5054345;28;20044;-85
2022/05/12 10:20:26;;;;;;;6.47;1.92;;;23.10;58.50;;;25.37;38.39;167244.41;5054085;28;20032;-82
2022/05/12 10:23:15;;;;;;;4.55;1.80;;;23.50;61.90;;;25.28;37.42;167220.19;5053619;28;20029;-85
2022/05/12 10:26:01;;;;;;;5.72;2.80;;;23.50;59.90;;;24.62;37.77;167046.38;5054073;28;20032;-84
2022/05/12 10:29:36;;;;;;;4.93;2.83;;;23.20;60.00;;;23.28;39.62;166688.09;5056292;28;20384;-85
2022/05/12 10:32:59;;;;;;;6.18;2.75;;;22.20;60.00;;;22.74;41.71;166544.13;5052525;28;20112;-86
2022/05/12 10:35:50;;;;;;;4.88;2.20;;;21.50;63.40;;;21.95;43.26;166334.25;5067415;28;20033;-84
2022/05/12 10:38:40;;;;;;;5.00;2.72;;;20.70;66.60;;;21.38;44.75;166182.19;5057616;28;20035;-85
2022/05/12 10:41:46;;;;;;;3.97;2.17;;;20.20;68.90;;;21.41;45.85;166188.97;5052415;28;20029;-84
2022/05/12 10:44:51;;;;;;;6.43;2.90;;;20.10;72.10;;;21.27;46.44;166152.66;5018609;28;20421;-84
2022/05/12 10:47:52;;;;;;;7.20;2.85;;;19.90;71.80;;;21.20;46.39;166133.81;5053841;28;20025;-86
2022/05/12 10:50:37;;;;;;;5.70;3.10;;;20.00;71.60;;;21.40;47.03;166187.63;5053845;28;20029;-86